ROMMA est une association bénévole à but non lucratif. Votre soutien est indispensable : ADHERER à ROMMA ou FAIRE un DON

Granges-lès-Beaumont - (26, Drôme)

Drôme des Collines (155 m)   Longitude: 04°58'E   Latitude: 45°03'N Station partenaire n°123
 

Détail journalier du     <<     >>

Température Precipitation Humidité Pression Vent Dir Rafale Dir. rafale Ensol.
Heure (°C) (mm) (%) (hPa) (km/h) (km/h) (min)
01:00 12.5081101513S35S0
02:00 12.5082101410SSO26SSO0
03:00 12.408110139SSO29SO0
04:00 12.5081101213SSO31S0
05:00 11.9084101118SSO42S0
06:00 12.0082101015SSO37SSO0
07:00 12.1082101016SSO34SSO0
08:00 12.6077101013SSO39SO0
09:00 12.208010108S24S0
10:00 11.8081101011SSO26S0
11:00 12.3069101016S47SSO0
12:00 12.4064100816SSO34SO0
13:00 12.7061100816SSO32SSO0
14:00 13.7059100717SSO35S0
15:00 13.6066100620SSO47SSO0
16:00 15.4063100520SSO40SO10
17:00 14.6066100619SSO42S0
18:00 11.7285100715OSO39O0
19:00 11.43.48810082SE11SE0
20:00 11.21.89010078E29E0
21:00 11.11.29010081ONO6ONO0
22:00 10.709010075E13ENE0
23:00 10.309110083E11ONO0
minuit 9.309110082ONO8E0

Graphique du 08-05-2019

 

Serveur OMMA